Hillsboro, New Hampshire
Current Conditions -  °F | °C
As of 3:51 AM on Friday 31 Oct 2014 (Local Time) from KCON Reporting Station
Overcast Overcast  
Wind Chill: 38°   Ceiling: 4900
Heat Index: 38°   Visibility: 10mi
Dew Point: 36°   Wind: 0mph
Humidity: 93%   Direction: NA
Pressure: 30.02"   Gusts: NA
Location:  43.12°N, 71.9°W
Report Text: KCON 310751Z AUTO 00000KT 10SM OVC049 03/02 A3002 RMK AO2 SLP168 T00330022
Loading
Personal Weather Stations






























Interactive Weather Map
Tropical Storm Tracking
New forecast layout! Learn more

10-Day Weather Forecast

Advertisements
Track Severe Weather on mobile